Scm Elpida — V2OI1 — position and weather

sailwx.info

Track history (hours):
 
Tides and Currents Weather Stations Pressure Air Temp Water Temp Dewpoint Dewpoint Depression Visibility Wind Speed Wind Dir Waves Ship Positions

Scm Elpida

Last reported at 2017-Dec-07 05:04 UTC. Time now 2018-Jan-22 15:57 UTC.
Position N 25°33' W 079°37'.
Warning: this ship's position is 46 days out of date.

Length 108 m; draft 6.4 m.

Type: Cargo ship. MMSI: 304188000.

Date/timePositionNaut miles runAvg speedWind from/ knotsBaromVisibWave heightAir tempDewpointWater temp
2017-Dec-07 05:04N 25°33' W 079°37'110.2
2017-Dec-07 05:00N 25°34' W 079°37'510.1
2017-Dec-07 04:29N 25°39' W 079°38'5 9.9
2017-Dec-07 04:00N 25°44' W 079°39'5 9.8
2017-Dec-07 03:30N 25°49' W 079°40'5 9.8
2017-Dec-07 03:00N 25°53' W 079°43'5 9.8
2017-Dec-07 02:30N 25°57' W 079°47'510.2
2017-Dec-07 02:00N 25°59' W 079°51'5 9.9
2017-Dec-07 01:30N 26°02' W 079°56'510.0
2017-Dec-07 01:00N 26°04' W 080°01'5 9.7
2017-Dec-07 00:30N 26°06' W 080°06'1 1.8
2017-Dec-06 23:53N 26°06' W 080°07'0 0.0
2017-Dec-06 23:23N 26°06' W 080°07'0 0.0
2017-Dec-06 22:53N 26°06' W 080°07'0 0.0
2017-Dec-06 22:23N 26°06' W 080°07'0 0.0
2017-Dec-06 21:53N 26°06' W 080°07'0 0.0
2017-Dec-06 21:23N 26°06' W 080°07'0 0.0
2017-Dec-06 20:53N 26°06' W 080°07'  
2017-Dec-04 10:29N 26°06' W 080°07'0 0.0
2017-Dec-04 09:59N 26°06' W 080°07'0 0.0
2017-Dec-04 09:26N 26°06' W 080°07'0 0.0
2017-Dec-04 08:59N 26°06' W 080°07'0 0.0
2017-Dec-04 08:29N 26°06' W 080°07'0 0.0
2017-Dec-04 07:59N 26°06' W 080°07'0 0.0
2017-Dec-04 07:29N 26°06' W 080°07'0 0.0
2017-Dec-04 06:59N 26°06' W 080°07'0 0.0
2017-Dec-04 06:29N 26°06' W 080°07'0 0.0
2017-Dec-04 05:59N 26°06' W 080°07'0 0.0
2017-Dec-04 05:29N 26°06' W 080°07'0 0.0
2017-Dec-04 04:59N 26°06' W 080°07'0 0.0
2017-Dec-04 04:29N 26°06' W 080°07'0 0.0
2017-Dec-04 03:59N 26°06' W 080°07'0 0.0
2017-Dec-04 03:29N 26°06' W 080°07'0 0.0
2017-Dec-04 02:59N 26°06' W 080°07'0 0.0
2017-Dec-04 02:29N 26°06' W 080°07'0 0.0
2017-Dec-04 01:59N 26°06' W 080°07'0 0.0
2017-Dec-04 01:20N 26°06' W 080°07'0 0.0
2017-Dec-04 00:50N 26°06' W 080°07'0 0.1
2017-Dec-04 00:30N 26°06' W 080°07'3 5.1
2017-Dec-04 00:00N 26°06' W 080°04'1 2.4
2017-Dec-03 23:30N 26°07' W 080°04'0 0.8
2017-Dec-03 22:58N 26°08' W 080°05'0 0.0
2017-Dec-03 22:19N 26°08' W 080°05'0 0.0
2017-Dec-03 21:49N 26°08' W 080°05'0 0.0
2017-Dec-03 21:25N 26°08' W 080°05'0 0.0
2017-Dec-03 20:49N 26°08' W 080°05'0 0.0
2017-Dec-03 20:19N 26°08' W 080°05'0 0.0
2017-Dec-03 19:52N 26°08' W 080°05'0 0.0
2017-Dec-03 19:28N 26°08' W 080°05'0 0.0
2017-Dec-03 18:52N 26°08' W 080°05'0 0.0
2017-Dec-03 18:25N 26°08' W 080°05'0 0.0
2017-Dec-03 17:52N 26°07' W 080°05'0 0.0
2017-Dec-03 17:22N 26°07' W 080°05'0 0.0
2017-Dec-03 16:58N 26°07' W 080°05'0 0.0
2017-Dec-03 16:22N 26°07' W 080°05'0 0.0
2017-Dec-03 15:58N 26°07' W 080°05'0 0.0
2017-Dec-03 15:22N 26°07' W 080°05'0 0.0
2017-Dec-03 14:52N 26°07' W 080°05'0 0.0
2017-Dec-03 14:22N 26°07' W 080°05'0 0.0
2017-Dec-03 13:52N 26°07' W 080°05'0 0.0
2017-Dec-03 13:22N 26°07' W 080°05'0 0.0
2017-Dec-03 12:58N 26°07' W 080°05'0 0.0
2017-Dec-03 12:19N 26°07' W 080°05'0 0.0
2017-Dec-03 11:55N 26°08' W 080°05'0 0.0
2017-Dec-03 11:28N 26°07' W 080°05'0 0.0
2017-Dec-03 10:55N 26°08' W 080°05'0 0.0
2017-Dec-03 10:25N 26°08' W 080°05'0 0.0
2017-Dec-03 09:55N 26°08' W 080°05'0 0.0
2017-Dec-03 09:25N 26°08' W 080°05'0 0.0
2017-Dec-03 08:58N 26°08' W 080°05'0 0.0
2017-Dec-03 08:22N 26°08' W 080°05'0 0.0
2017-Dec-03 07:55N 26°08' W 080°05'0 0.0
2017-Dec-03 07:25N 26°08' W 080°05'0 0.0
2017-Dec-03 06:55N 26°08' W 080°05'0 0.0
2017-Dec-03 06:25N 26°08' W 080°05'0 0.0
2017-Dec-03 05:52N 26°08' W 080°05'0 0.0
2017-Dec-03 05:25N 26°08' W 080°05'0 0.0
2017-Dec-03 04:58N 26°07' W 080°05'0 0.0
2017-Dec-03 04:28N 26°08' W 080°05'0 0.0
2017-Dec-03 03:58N 26°07' W 080°05'0 0.0
2017-Dec-03 03:28N 26°07' W 080°05'0 0.0
2017-Dec-03 02:58N 26°07' W 080°05'0 0.0
2017-Dec-03 02:28N 26°07' W 080°05'0 0.0
2017-Dec-03 01:58N 26°07' W 080°05'0 0.0
2017-Dec-03 01:25N 26°07' W 080°05'0 0.0
2017-Dec-03 00:58N 26°07' W 080°05'0 0.0
2017-Dec-03 00:31N 26°07' W 080°05'0 0.0
2017-Dec-02 23:57N 26°07' W 080°05'0 0.0
2017-Dec-02 23:27N 26°07' W 080°05'0 0.0
2017-Dec-02 23:00N 26°07' W 080°05'0 0.0
2017-Dec-02 22:27N 26°07' W 080°05'0 0.0
2017-Dec-02 22:00N 26°07' W 080°05'0 0.0
2017-Dec-02 21:30N 26°07' W 080°05'0 0.0
2017-Dec-02 21:00N 26°08' W 080°05'0 0.0
2017-Dec-02 20:30N 26°08' W 080°05'0 0.0
2017-Dec-02 20:00N 26°08' W 080°05'0 0.0
2017-Dec-02 19:30N 26°07' W 080°05'0 0.0
2017-Dec-02 18:57N 26°08' W 080°05'0 0.1
2017-Dec-02 18:30N 26°07' W 080°05'0 0.1
2017-Dec-02 18:00N 26°08' W 080°05'0 0.0
2017-Dec-02 17:27N 26°08' W 080°05'0 0.0
2017-Dec-02 17:00N 26°07' W 080°05'0 0.0
2017-Dec-02 16:30N 26°07' W 080°05'0 0.0
2017-Dec-02 15:57N 26°07' W 080°05'0 0.0
2017-Dec-02 15:30N 26°07' W 080°05'0 0.0
2017-Dec-02 15:00N 26°07' W 080°05'0 0.0
2017-Dec-02 14:30N 26°07' W 080°05'0 0.1
2017-Dec-02 14:00N 26°08' W 080°05'0 0.0
2017-Dec-02 13:30N 26°07' W 080°05'0 0.0
2017-Dec-02 13:00N 26°07' W 080°05'0 0.0
2017-Dec-02 12:30N 26°07' W 080°05'0 0.0
2017-Dec-02 12:00N 26°07' W 080°05'0 0.0
2017-Dec-02 11:30N 26°07' W 080°05'0 0.0
2017-Dec-02 11:00N 26°07' W 080°05'0 0.0
2017-Dec-02 10:30N 26°08' W 080°05'0 0.0
2017-Dec-02 10:00N 26°07' W 080°05'0 0.0
2017-Dec-02 09:30N 26°08' W 080°05'0 0.0
2017-Dec-02 09:00N 26°08' W 080°05'0 0.0
2017-Dec-02 08:30N 26°08' W 080°05'0 0.0
2017-Dec-02 08:00N 26°08' W 080°05'0 0.0
2017-Dec-02 07:30N 26°08' W 080°05'0 0.0
2017-Dec-02 07:00N 26°08' W 080°05'0 0.0
2017-Dec-02 06:30N 26°08' W 080°05'0 0.0
2017-Dec-02 06:00N 26°08' W 080°05'0 0.0
2017-Dec-02 05:30N 26°08' W 080°05'0 0.0
2017-Dec-02 05:00N 26°07' W 080°05'0 0.0
2017-Dec-02 04:21N 26°07' W 080°05'0 0.1
2017-Dec-02 03:54N 26°07' W 080°05'0 0.0
2017-Dec-02 03:21N 26°07' W 080°05'0 0.1
2017-Dec-02 03:00N 26°07' W 080°05'0 0.0
2017-Dec-02 02:21N 26°07' W 080°05'0 0.0
2017-Dec-02 01:51N 26°07' W 080°05'0 0.0
2017-Dec-02 01:24N 26°07' W 080°04'0 0.0
2017-Dec-02 01:00N 26°07' W 080°05'0 0.0
2017-Dec-02 00:24N 26°07' W 080°05'0 0.0
2017-Dec-01 23:57N 26°07' W 080°05'0 0.0
2017-Dec-01 23:24N 26°07' W 080°04'0 0.0
2017-Dec-01 22:54N 26°07' W 080°05'0 0.0
2017-Dec-01 22:23N 26°07' W 080°04'0 0.0
2017-Dec-01 21:53N 26°07' W 080°05'0 0.0
2017-Dec-01 21:23N 26°07' W 080°04'0 0.0
2017-Dec-01 20:53N 26°07' W 080°05'0 0.0
2017-Dec-01 20:23N 26°07' W 080°05'0 0.0
2017-Dec-01 19:53N 26°07' W 080°05'0 0.0
2017-Dec-01 19:23N 26°07' W 080°05'0 0.0
2017-Dec-01 18:56N 26°07' W 080°04'0 0.0
2017-Dec-01 18:23N 26°07' W 080°04'0 0.0
2017-Dec-01 17:59N 26°07' W 080°04'0 0.0
2017-Dec-01 17:26N 26°07' W 080°05'0 0.0
2017-Dec-01 16:56N 26°07' W 080°05'0 0.0
2017-Dec-01 16:26N 26°07' W 080°05'0 0.1
2017-Dec-01 15:56N 26°07' W 080°04'0 0.1
2017-Dec-01 15:26N 26°07' W 080°05'0 0.1
2017-Dec-01 14:56N 26°07' W 080°04'0 0.0
2017-Dec-01 14:26N 26°07' W 080°04'0 0.0
2017-Dec-01 13:56N 26°07' W 080°04'0 0.0
2017-Dec-01 13:26N 26°07' W 080°04'0 0.0
2017-Dec-01 12:56N 26°07' W 080°04'0 0.0
2017-Dec-01 12:29N 26°07' W 080°04'0 0.0
2017-Dec-01 11:56N 26°07' W 080°04'0 0.0
2017-Dec-01 11:26N 26°07' W 080°04'0 0.1
2017-Dec-01 10:59N 26°07' W 080°05'0 0.0
2017-Dec-01 10:29N 26°07' W 080°05'0 0.0
2017-Dec-01 09:59N 26°07' W 080°05'0 0.0
2017-Dec-01 09:29N 26°07' W 080°05'0 0.0
2017-Dec-01 08:59N 26°07' W 080°05'0 0.0
2017-Dec-01 08:29N 26°07' W 080°04'0 0.0
2017-Dec-01 07:59N 26°07' W 080°05'0 0.0
2017-Dec-01 07:29N 26°07' W 080°05'0 0.0
2017-Dec-01 06:59N 26°07' W 080°05'0 0.0
2017-Dec-01 06:29N 26°07' W 080°05'0 0.0
2017-Dec-01 05:59N 26°07' W 080°05'0 0.0
2017-Dec-01 05:29N 26°07' W 080°05'0 0.0
2017-Dec-01 04:59N 26°07' W 080°05'0 0.0
2017-Dec-01 04:29N 26°07' W 080°05'0 0.0
2017-Dec-01 03:59N 26°07' W 080°05'0 0.0
2017-Dec-01 03:29N 26°07' W 080°04'0 0.0
2017-Dec-01 02:56N 26°07' W 080°05'0 0.0
2017-Dec-01 02:29N 26°07' W 080°05'0 0.0
2017-Dec-01 01:59N 26°07' W 080°04'0 0.0
2017-Dec-01 01:29N 26°07' W 080°04'0 0.0
2017-Dec-01 00:59N 26°07' W 080°04'0 0.0
2017-Dec-01 00:29N 26°07' W 080°04'0 0.0
2017-Nov-30 23:59N 26°07' W 080°04'0 0.0
2017-Nov-30 23:29N 26°07' W 080°04'0 0.0
2017-Nov-30 22:59N 26°07' W 080°04'0 0.0
2017-Nov-30 22:29N 26°07' W 080°04'0 0.0
2017-Nov-30 21:59N 26°07' W 080°04'0 0.0
2017-Nov-30 21:29N 26°07' W 080°04'0 0.0
2017-Nov-30 20:58N 26°07' W 080°04'0 0.0
2017-Nov-30 20:28N 26°07' W 080°04'0 0.0
2017-Nov-30 19:58N 26°07' W 080°05'0 0.0
2017-Nov-30 19:28N 26°07' W 080°04'0 0.0
2017-Nov-30 18:58N 26°07' W 080°04'0 0.0
2017-Nov-30 18:28N 26°07' W 080°04'0 0.0
2017-Nov-30 17:58N 26°07' W 080°05'0 0.0
2017-Nov-30 17:19N 26°07' W 080°04'0 0.0
2017-Nov-30 16:49N 26°07' W 080°05'0 0.0
2017-Nov-30 16:28N 26°07' W 080°05'0 0.0
2017-Nov-30 15:49N 26°07' W 080°05'0 0.0
2017-Nov-30 15:22N 26°07' W 080°05'0 0.0
2017-Nov-30 14:49N 26°07' W 080°05'0 0.0
2017-Nov-30 14:19N 26°07' W 080°05'0 0.0
2017-Nov-30 13:52N 26°07' W 080°05'0 0.0
2017-Nov-30 13:22N 26°07' W 080°05'0 0.0
2017-Nov-30 12:52N 26°07' W 080°05'0 0.0
2017-Nov-30 12:22N 26°07' W 080°05'0 0.0
2017-Nov-30 11:52N 26°07' W 080°05'0 0.0
2017-Nov-30 11:22N 26°07' W 080°05'0 0.0
2017-Nov-30 10:52N 26°07' W 080°05'0 0.0
2017-Nov-30 10:22N 26°07' W 080°05'0 0.0
2017-Nov-30 09:52N 26°07' W 080°05'0 0.0
2017-Nov-30 09:22N 26°07' W 080°05'0 0.0
2017-Nov-30 08:52N 26°07' W 080°05'0 0.0
2017-Nov-30 08:19N 26°07' W 080°05'0 0.0
2017-Nov-30 07:58N 26°07' W 080°05'0 0.0
2017-Nov-30 07:22N 26°07' W 080°05'0 0.0
2017-Nov-30 06:55N 26°07' W 080°05'0 0.0
2017-Nov-30 06:25N 26°07' W 080°05'0 0.0
2017-Nov-30 05:55N 26°07' W 080°05'0 0.0
2017-Nov-30 05:25N 26°07' W 080°05'0 0.0
2017-Nov-30 05:00N 26°07' W 080°05'0 0.0
2017-Nov-30 04:30N 26°07' W 080°05'1 1.4
2017-Nov-30 04:01N 26°07' W 080°05'510.3
2017-Nov-30 03:30N 26°04' W 080°00'611.5
2017-Nov-30 03:00N 26°00' W 079°55'611.7
2017-Nov-30 02:30N 25°57' W 079°50'611.6
2017-Nov-30 02:00N 25°53' W 079°45'510.8
2017-Nov-30 01:30N 25°49' W 079°41'611.3
2017-Nov-30 01:00N 25°44' W 079°41'611.6
2017-Nov-30 00:30N 25°38' W 079°41'611.7
2017-Nov-29 23:59N 25°32' W 079°40'  
Track history (hours):
 
Tides and Currents Weather Stations Pressure Air Temp Water Temp Dewpoint Dewpoint Depression Visibility Wind Speed Wind Dir Waves Ship Positions

Scm Elpida

Last reported at 2017-Dec-07 05:04 UTC. Time now 2018-Jan-22 15:57 UTC.
Position N 25°33' W 079°37'.
Warning: this ship's position is 46 days out of date.

Length 108 m; draft 6.4 m.

Type: Cargo ship. MMSI: 304188000.

Date/timePositionNaut miles runAvg speedWind from/ knotsBaromVisibWave heightAir tempDewpointWater temp
2017-Dec-07 05:04N 25°33' W 079°37'110.2
2017-Dec-07 05:00N 25°34' W 079°37'510.1
2017-Dec-07 04:29N 25°39' W 079°38'5 9.9
2017-Dec-07 04:00N 25°44' W 079°39'5 9.8
2017-Dec-07 03:30N 25°49' W 079°40'5 9.8
2017-Dec-07 03:00N 25°53' W 079°43'5 9.8
2017-Dec-07 02:30N 25°57' W 079°47'510.2
2017-Dec-07 02:00N 25°59' W 079°51'5 9.9
2017-Dec-07 01:30N 26°02' W 079°56'510.0
2017-Dec-07 01:00N 26°04' W 080°01'5 9.7
2017-Dec-07 00:30N 26°06' W 080°06'1 1.8
2017-Dec-06 23:53N 26°06' W 080°07'0 0.0
2017-Dec-06 23:23N 26°06' W 080°07'0 0.0
2017-Dec-06 22:53N 26°06' W 080°07'0 0.0
2017-Dec-06 22:23N 26°06' W 080°07'0 0.0
2017-Dec-06 21:53N 26°06' W 080°07'0 0.0
2017-Dec-06 21:23N 26°06' W 080°07'0 0.0
2017-Dec-06 20:53N 26°06' W 080°07'  
2017-Dec-04 10:29N 26°06' W 080°07'0 0.0
2017-Dec-04 09:59N 26°06' W 080°07'0 0.0
2017-Dec-04 09:26N 26°06' W 080°07'0 0.0
2017-Dec-04 08:59N 26°06' W 080°07'0 0.0
2017-Dec-04 08:29N 26°06' W 080°07'0 0.0
2017-Dec-04 07:59N 26°06' W 080°07'0 0.0
2017-Dec-04 07:29N 26°06' W 080°07'0 0.0
2017-Dec-04 06:59N 26°06' W 080°07'0 0.0
2017-Dec-04 06:29N 26°06' W 080°07'0 0.0
2017-Dec-04 05:59N 26°06' W 080°07'0 0.0
2017-Dec-04 05:29N 26°06' W 080°07'0 0.0
2017-Dec-04 04:59N 26°06' W 080°07'0 0.0
2017-Dec-04 04:29N 26°06' W 080°07'0 0.0
2017-Dec-04 03:59N 26°06' W 080°07'0 0.0
2017-Dec-04 03:29N 26°06' W 080°07'0 0.0
2017-Dec-04 02:59N 26°06' W 080°07'0 0.0
2017-Dec-04 02:29N 26°06' W 080°07'0 0.0
2017-Dec-04 01:59N 26°06' W 080°07'0 0.0
2017-Dec-04 01:20N 26°06' W 080°07'0 0.0
2017-Dec-04 00:50N 26°06' W 080°07'0 0.1
2017-Dec-04 00:30N 26°06' W 080°07'3 5.1
2017-Dec-04 00:00N 26°06' W 080°04'1 2.4
2017-Dec-03 23:30N 26°07' W 080°04'0 0.8
2017-Dec-03 22:58N 26°08' W 080°05'0 0.0
2017-Dec-03 22:19N 26°08' W 080°05'0 0.0
2017-Dec-03 21:49N 26°08' W 080°05'0 0.0
2017-Dec-03 21:25N 26°08' W 080°05'0 0.0
2017-Dec-03 20:49N 26°08' W 080°05'0 0.0
2017-Dec-03 20:19N 26°08' W 080°05'0 0.0
2017-Dec-03 19:52N 26°08' W 080°05'0 0.0
2017-Dec-03 19:28N 26°08' W 080°05'0 0.0
2017-Dec-03 18:52N 26°08' W 080°05'0 0.0
2017-Dec-03 18:25N 26°08' W 080°05'0 0.0
2017-Dec-03 17:52N 26°07' W 080°05'0 0.0
2017-Dec-03 17:22N 26°07' W 080°05'0 0.0
2017-Dec-03 16:58N 26°07' W 080°05'0 0.0
2017-Dec-03 16:22N 26°07' W 080°05'0 0.0
2017-Dec-03 15:58N 26°07' W 080°05'0 0.0
2017-Dec-03 15:22N 26°07' W 080°05'0 0.0
2017-Dec-03 14:52N 26°07' W 080°05'0 0.0
2017-Dec-03 14:22N 26°07' W 080°05'0 0.0
2017-Dec-03 13:52N 26°07' W 080°05'0 0.0
2017-Dec-03 13:22N 26°07' W 080°05'0 0.0
2017-Dec-03 12:58N 26°07' W 080°05'0 0.0
2017-Dec-03 12:19N 26°07' W 080°05'0 0.0
2017-Dec-03 11:55N 26°08' W 080°05'0 0.0
2017-Dec-03 11:28N 26°07' W 080°05'0 0.0
2017-Dec-03 10:55N 26°08' W 080°05'0 0.0
2017-Dec-03 10:25N 26°08' W 080°05'0 0.0
2017-Dec-03 09:55N 26°08' W 080°05'0 0.0
2017-Dec-03 09:25N 26°08' W 080°05'0 0.0
2017-Dec-03 08:58N 26°08' W 080°05'0 0.0
2017-Dec-03 08:22N 26°08' W 080°05'0 0.0
2017-Dec-03 07:55N 26°08' W 080°05'0 0.0
2017-Dec-03 07:25N 26°08' W 080°05'0 0.0
2017-Dec-03 06:55N 26°08' W 080°05'0 0.0
2017-Dec-03 06:25N 26°08' W 080°05'0 0.0
2017-Dec-03 05:52N 26°08' W 080°05'0 0.0
2017-Dec-03 05:25N 26°08' W 080°05'0 0.0
2017-Dec-03 04:58N 26°07' W 080°05'0 0.0
2017-Dec-03 04:28N 26°08' W 080°05'0 0.0
2017-Dec-03 03:58N 26°07' W 080°05'0 0.0
2017-Dec-03 03:28N 26°07' W 080°05'0 0.0
2017-Dec-03 02:58N 26°07' W 080°05'0 0.0
2017-Dec-03 02:28N 26°07' W 080°05'0 0.0
2017-Dec-03 01:58N 26°07' W 080°05'0 0.0
2017-Dec-03 01:25N 26°07' W 080°05'0 0.0
2017-Dec-03 00:58N 26°07' W 080°05'0 0.0
2017-Dec-03 00:31N 26°07' W 080°05'0 0.0
2017-Dec-02 23:57N 26°07' W 080°05'0 0.0
2017-Dec-02 23:27N 26°07' W 080°05'0 0.0
2017-Dec-02 23:00N 26°07' W 080°05'0 0.0
2017-Dec-02 22:27N 26°07' W 080°05'0 0.0
2017-Dec-02 22:00N 26°07' W 080°05'0 0.0
2017-Dec-02 21:30N 26°07' W 080°05'0 0.0
2017-Dec-02 21:00N 26°08' W 080°05'0 0.0
2017-Dec-02 20:30N 26°08' W 080°05'0 0.0
2017-Dec-02 20:00N 26°08' W 080°05'0 0.0
2017-Dec-02 19:30N 26°07' W 080°05'0 0.0
2017-Dec-02 18:57N 26°08' W 080°05'0 0.1
2017-Dec-02 18:30N 26°07' W 080°05'0 0.1
2017-Dec-02 18:00N 26°08' W 080°05'0 0.0
2017-Dec-02 17:27N 26°08' W 080°05'0 0.0
2017-Dec-02 17:00N 26°07' W 080°05'0 0.0
2017-Dec-02 16:30N 26°07' W 080°05'0 0.0
2017-Dec-02 15:57N 26°07' W 080°05'0 0.0
2017-Dec-02 15:30N 26°07' W 080°05'0 0.0
2017-Dec-02 15:00N 26°07' W 080°05'0 0.0
2017-Dec-02 14:30N 26°07' W 080°05'0 0.1
2017-Dec-02 14:00N 26°08' W 080°05'0 0.0
2017-Dec-02 13:30N 26°07' W 080°05'0 0.0
2017-Dec-02 13:00N 26°07' W 080°05'0 0.0
2017-Dec-02 12:30N 26°07' W 080°05'0 0.0
2017-Dec-02 12:00N 26°07' W 080°05'0 0.0
2017-Dec-02 11:30N 26°07' W 080°05'0 0.0
2017-Dec-02 11:00N 26°07' W 080°05'0 0.0
2017-Dec-02 10:30N 26°08' W 080°05'0 0.0
2017-Dec-02 10:00N 26°07' W 080°05'0 0.0
2017-Dec-02 09:30N 26°08' W 080°05'0 0.0
2017-Dec-02 09:00N 26°08' W 080°05'0 0.0
2017-Dec-02 08:30N 26°08' W 080°05'0 0.0
2017-Dec-02 08:00N 26°08' W 080°05'0 0.0
2017-Dec-02 07:30N 26°08' W 080°05'0 0.0
2017-Dec-02 07:00N 26°08' W 080°05'0 0.0
2017-Dec-02 06:30N 26°08' W 080°05'0 0.0
2017-Dec-02 06:00N 26°08' W 080°05'0 0.0
2017-Dec-02 05:30N 26°08' W 080°05'0 0.0
2017-Dec-02 05:00N 26°07' W 080°05'0 0.0
2017-Dec-02 04:21N 26°07' W 080°05'0 0.1
2017-Dec-02 03:54N 26°07' W 080°05'0 0.0
2017-Dec-02 03:21N 26°07' W 080°05'0 0.1
2017-Dec-02 03:00N 26°07' W 080°05'0 0.0
2017-Dec-02 02:21N 26°07' W 080°05'0 0.0
2017-Dec-02 01:51N 26°07' W 080°05'0 0.0
2017-Dec-02 01:24N 26°07' W 080°04'0 0.0
2017-Dec-02 01:00N 26°07' W 080°05'0 0.0
2017-Dec-02 00:24N 26°07' W 080°05'0 0.0
2017-Dec-01 23:57N 26°07' W 080°05'0 0.0
2017-Dec-01 23:24N 26°07' W 080°04'0 0.0
2017-Dec-01 22:54N 26°07' W 080°05'0 0.0
2017-Dec-01 22:23N 26°07' W 080°04'0 0.0
2017-Dec-01 21:53N 26°07' W 080°05'0 0.0
2017-Dec-01 21:23N 26°07' W 080°04'0 0.0
2017-Dec-01 20:53N 26°07' W 080°05'0 0.0
2017-Dec-01 20:23N 26°07' W 080°05'0 0.0
2017-Dec-01 19:53N 26°07' W 080°05'0 0.0
2017-Dec-01 19:23N 26°07' W 080°05'0 0.0
2017-Dec-01 18:56N 26°07' W 080°04'0 0.0
2017-Dec-01 18:23N 26°07' W 080°04'0 0.0
2017-Dec-01 17:59N 26°07' W 080°04'0 0.0
2017-Dec-01 17:26N 26°07' W 080°05'0 0.0
2017-Dec-01 16:56N 26°07' W 080°05'0 0.0
2017-Dec-01 16:26N 26°07' W 080°05'0 0.1
2017-Dec-01 15:56N 26°07' W 080°04'0 0.1
2017-Dec-01 15:26N 26°07' W 080°05'0 0.1
2017-Dec-01 14:56N 26°07' W 080°04'0 0.0
2017-Dec-01 14:26N 26°07' W 080°04'0 0.0
2017-Dec-01 13:56N 26°07' W 080°04'0 0.0
2017-Dec-01 13:26N 26°07' W 080°04'0 0.0
2017-Dec-01 12:56N 26°07' W 080°04'0 0.0
2017-Dec-01 12:29N 26°07' W 080°04'0 0.0
2017-Dec-01 11:56N 26°07' W 080°04'0 0.0
2017-Dec-01 11:26N 26°07' W 080°04'0 0.1
2017-Dec-01 10:59N 26°07' W 080°05'0 0.0
2017-Dec-01 10:29N 26°07' W 080°05'0 0.0
2017-Dec-01 09:59N 26°07' W 080°05'0 0.0
2017-Dec-01 09:29N 26°07' W 080°05'0 0.0
2017-Dec-01 08:59N 26°07' W 080°05'0 0.0
2017-Dec-01 08:29N 26°07' W 080°04'0 0.0
2017-Dec-01 07:59N 26°07' W 080°05'0 0.0
2017-Dec-01 07:29N 26°07' W 080°05'0 0.0
2017-Dec-01 06:59N 26°07' W 080°05'0 0.0
2017-Dec-01 06:29N 26°07' W 080°05'0 0.0
2017-Dec-01 05:59N 26°07' W 080°05'0 0.0
2017-Dec-01 05:29N 26°07' W 080°05'0 0.0
2017-Dec-01 04:59N 26°07' W 080°05'0 0.0
2017-Dec-01 04:29N 26°07' W 080°05'0 0.0
2017-Dec-01 03:59N 26°07' W 080°05'0 0.0
2017-Dec-01 03:29N 26°07' W 080°04'0 0.0
2017-Dec-01 02:56N 26°07' W 080°05'0 0.0
2017-Dec-01 02:29N 26°07' W 080°05'0 0.0
2017-Dec-01 01:59N 26°07' W 080°04'0 0.0
2017-Dec-01 01:29N 26°07' W 080°04'0 0.0
2017-Dec-01 00:59N 26°07' W 080°04'0 0.0
2017-Dec-01 00:29N 26°07' W 080°04'0 0.0
2017-Nov-30 23:59N 26°07' W 080°04'0 0.0
2017-Nov-30 23:29N 26°07' W 080°04'0 0.0
2017-Nov-30 22:59N 26°07' W 080°04'0 0.0
2017-Nov-30 22:29N 26°07' W 080°04'0 0.0
2017-Nov-30 21:59N 26°07' W 080°04'0 0.0
2017-Nov-30 21:29N 26°07' W 080°04'0 0.0
2017-Nov-30 20:58N 26°07' W 080°04'0 0.0
2017-Nov-30 20:28N 26°07' W 080°04'0 0.0
2017-Nov-30 19:58N 26°07' W 080°05'0 0.0
2017-Nov-30 19:28N 26°07' W 080°04'0 0.0
2017-Nov-30 18:58N 26°07' W 080°04'0 0.0
2017-Nov-30 18:28N 26°07' W 080°04'0 0.0
2017-Nov-30 17:58N 26°07' W 080°05'0 0.0
2017-Nov-30 17:19N 26°07' W 080°04'0 0.0
2017-Nov-30 16:49N 26°07' W 080°05'0 0.0
2017-Nov-30 16:28N 26°07' W 080°05'0 0.0
2017-Nov-30 15:49N 26°07' W 080°05'0 0.0
2017-Nov-30 15:22N 26°07' W 080°05'0 0.0
2017-Nov-30 14:49N 26°07' W 080°05'0 0.0
2017-Nov-30 14:19N 26°07' W 080°05'0 0.0
2017-Nov-30 13:52N 26°07' W 080°05'0 0.0
2017-Nov-30 13:22N 26°07' W 080°05'0 0.0
2017-Nov-30 12:52N 26°07' W 080°05'0 0.0
2017-Nov-30 12:22N 26°07' W 080°05'0 0.0
2017-Nov-30 11:52N 26°07' W 080°05'0 0.0
2017-Nov-30 11:22N 26°07' W 080°05'0 0.0
2017-Nov-30 10:52N 26°07' W 080°05'0 0.0
2017-Nov-30 10:22N 26°07' W 080°05'0 0.0
2017-Nov-30 09:52N 26°07' W 080°05'0 0.0
2017-Nov-30 09:22N 26°07' W 080°05'0 0.0
2017-Nov-30 08:52N 26°07' W 080°05'0 0.0
2017-Nov-30 08:19N 26°07' W 080°05'0 0.0
2017-Nov-30 07:58N 26°07' W 080°05'0 0.0
2017-Nov-30 07:22N 26°07' W 080°05'0 0.0
2017-Nov-30 06:55N 26°07' W 080°05'0 0.0
2017-Nov-30 06:25N 26°07' W 080°05'0 0.0
2017-Nov-30 05:55N 26°07' W 080°05'0 0.0
2017-Nov-30 05:25N 26°07' W 080°05'0 0.0
2017-Nov-30 05:00N 26°07' W 080°05'0 0.0
2017-Nov-30 04:30N 26°07' W 080°05'1 1.4
2017-Nov-30 04:01N 26°07' W 080°05'510.3
2017-Nov-30 03:30N 26°04' W 080°00'611.5
2017-Nov-30 03:00N 26°00' W 079°55'611.7
2017-Nov-30 02:30N 25°57' W 079°50'611.6
2017-Nov-30 02:00N 25°53' W 079°45'510.8
2017-Nov-30 01:30N 25°49' W 079°41'611.3
2017-Nov-30 01:00N 25°44' W 079°41'611.6
2017-Nov-30 00:30N 25°38' W 079°41'611.7
2017-Nov-29 23:59N 25°32' W 079°40'  

Dump ship's entire track history